createdAt,value
2022-08-22T00:00:44.062Z,2.05
2022-08-22T00:02:43.755Z,0.90
2022-08-22T00:02:45.527Z,1.30
2022-08-22T00:02:53.605Z,1.50
2022-08-22T00:03:02.740Z,1.00
2022-08-22T00:03:06.551Z,2.40
2022-08-22T00:03:35.635Z,1.90
2022-08-22T00:06:02.701Z,1.75
2022-08-22T00:08:39.822Z,1.80
2022-08-22T00:11:18.839Z,1.75
2022-08-22T00:13:52.727Z,1.80
2022-08-22T00:17:00.819Z,1.90
2022-08-22T00:19:42.225Z,1.80
2022-08-22T00:22:20.921Z,1.80
2022-08-22T00:24:58.429Z,2.05
2022-08-22T00:27:38.218Z,2.05
2022-08-22T00:30:16.072Z,1.90
2022-08-22T00:32:47.113Z,2.08
2022-08-22T00:35:27.158Z,1.70
2022-08-22T00:38:09.438Z,2.13
2022-08-22T00:40:53.860Z,1.70
2022-08-22T00:43:44.019Z,2.05
2022-08-22T00:46:11.082Z,1.90
2022-08-22T00:48:59.576Z,2.00
2022-08-22T00:51:32.423Z,1.90
2022-08-22T00:54:37.714Z,2.20
2022-08-22T00:57:42.819Z,1.65
2022-08-22T01:00:16.183Z,1.90
2022-08-22T01:02:52.556Z,2.97
2022-08-22T01:05:25.942Z,1.77
2022-08-22T01:07:53.052Z,1.88
2022-08-22T01:10:41.703Z,1.65
2022-08-22T01:13:10.838Z,1.80
2022-08-22T01:15:39.239Z,2.25
2022-08-22T01:18:28.966Z,1.67
2022-08-22T01:21:05.043Z,1.65
2022-08-22T01:23:44.431Z,1.73
2022-08-22T01:26:44.000Z,1.80
2022-08-22T01:32:03.458Z,1.40
2022-08-22T01:34:50.837Z,1.70
2022-08-22T01:37:51.580Z,1.50
2022-08-22T01:40:53.398Z,1.63
2022-08-22T01:43:59.282Z,1.73
2022-08-22T01:46:46.257Z,1.55
2022-08-22T01:49:26.813Z,1.33
2022-08-22T01:52:01.957Z,1.50
2022-08-22T01:54:56.585Z,1.55
2022-08-22T01:57:25.179Z,1.60
2022-08-22T01:59:55.991Z,1.48
2022-08-22T02:02:41.513Z,1.40
2022-08-22T02:05:17.501Z,1.50
2022-08-22T02:08:01.781Z,2.00
2022-08-22T02:11:04.870Z,1.50
2022-08-22T02:14:03.381Z,1.60
2022-08-22T02:16:40.499Z,1.80
2022-08-22T02:19:10.348Z,1.63
2022-08-22T02:22:18.911Z,1.70
2022-08-22T02:25:20.191Z,1.80
2022-08-22T02:28:06.735Z,1.48
2022-08-22T02:30:53.881Z,1.50
2022-08-22T02:33:49.459Z,1.52
2022-08-22T02:36:28.618Z,1.40
2022-08-22T02:39:20.063Z,1.67
2022-08-22T02:42:25.065Z,1.50
2022-08-22T02:45:13.898Z,1.35
2022-08-22T02:48:16.170Z,1.38
2022-08-22T02:50:54.025Z,1.60
2022-08-22T02:53:32.706Z,1.70
2022-08-22T02:56:23.688Z,1.52
2022-08-22T02:58:57.008Z,1.40
2022-08-22T03:01:40.761Z,1.48
2022-08-22T03:04:32.561Z,1.40
2022-08-22T03:07:11.339Z,1.50
2022-08-22T03:09:41.562Z,1.33
2022-08-22T03:12:56.968Z,1.35
2022-08-22T03:15:52.869Z,1.42
2022-08-22T03:18:59.269Z,1.70
2022-08-22T03:21:37.439Z,1.80
2022-08-22T03:24:12.535Z,1.55
2022-08-22T03:27:07.730Z,1.80
2022-08-22T03:29:44.802Z,1.63
2022-08-22T03:32:14.472Z,1.70
2022-08-22T03:35:04.791Z,1.58
2022-08-22T03:40:32.111Z,1.30
2022-08-22T03:43:31.728Z,1.30
2022-08-22T03:46:37.854Z,1.20
2022-08-22T03:49:42.618Z,1.42
2022-08-22T03:52:33.629Z,1.52
2022-08-22T03:55:19.344Z,1.33
2022-08-22T03:58:01.639Z,1.30
2022-08-22T04:00:50.290Z,1.70
2022-08-22T04:04:01.650Z,1.33
2022-08-22T04:06:48.487Z,1.55
2022-08-22T04:09:43.218Z,1.30
2022-08-22T04:12:31.781Z,1.40
2022-08-22T04:15:17.148Z,1.50
2022-08-22T04:18:16.445Z,1.40
2022-08-22T04:21:21.982Z,1.98
2022-08-22T04:24:27.736Z,1.95
2022-08-22T04:27:47.329Z,1.70
2022-08-22T04:30:23.541Z,1.60
2022-08-22T04:32:56.069Z,1.50
2022-08-22T04:35:39.636Z,1.52
2022-08-22T04:38:20.761Z,1.73
2022-08-22T04:41:01.350Z,1.55
2022-08-22T04:43:57.304Z,1.85
2022-08-22T04:46:37.027Z,1.70
2022-08-22T04:49:36.290Z,1.80
2022-08-22T04:52:20.858Z,1.73
2022-08-22T04:55:27.155Z,1.98
2022-08-22T04:58:32.747Z,2.35
2022-08-22T05:01:19.543Z,1.77
2022-08-22T05:04:02.990Z,2.10
2022-08-22T05:06:34.205Z,1.70
2022-08-22T05:09:07.285Z,1.90
2022-08-22T05:11:37.447Z,2.13
2022-08-22T05:14:13.944Z,2.08
2022-08-22T05:16:44.899Z,2.10
2022-08-22T05:19:29.639Z,1.83
2022-08-22T05:21:59.487Z,1.83
2022-08-22T05:24:32.081Z,2.00
2022-08-22T05:27:23.877Z,2.40
2022-08-22T05:29:56.232Z,1.75
2022-08-22T05:32:31.385Z,2.00
2022-08-22T05:35:02.092Z,1.95
2022-08-22T05:37:43.464Z,1.85
2022-08-22T05:40:20.937Z,2.25
2022-08-22T05:42:48.756Z,2.20
2022-08-22T05:45:18.422Z,1.85
2022-08-22T05:47:47.406Z,2.13
2022-08-22T05:50:18.462Z,2.13
2022-08-22T05:53:06.462Z,2.08
2022-08-22T05:55:42.704Z,2.20
2022-08-22T05:58:29.995Z,2.10
2022-08-22T06:01:20.811Z,1.95
2022-08-22T06:04:01.652Z,2.20
2022-08-22T06:06:32.699Z,1.65
2022-08-22T06:09:08.641Z,2.25
2022-08-22T06:12:18.133Z,1.75
2022-08-22T06:14:55.377Z,2.25
2022-08-22T06:17:31.230Z,2.00
2022-08-22T06:20:00.397Z,1.83
2022-08-22T06:22:34.130Z,1.77
2022-08-22T06:25:16.102Z,1.90
2022-08-22T06:27:45.884Z,2.22
2022-08-22T06:30:15.361Z,1.90
2022-08-22T06:32:59.245Z,2.03
2022-08-22T06:35:56.278Z,2.33
2022-08-22T06:38:32.617Z,2.05
2022-08-22T06:41:03.636Z,1.90
2022-08-22T06:43:38.975Z,1.98
2022-08-22T06:46:07.729Z,2.08
2022-08-22T06:48:36.760Z,2.10
2022-08-22T06:51:07.295Z,2.20
2022-08-22T06:53:47.888Z,1.98
2022-08-22T06:56:26.761Z,2.28
2022-08-22T06:58:57.939Z,2.03
2022-08-22T07:01:31.081Z,2.38
2022-08-22T07:04:07.753Z,2.05
2022-08-22T07:06:36.214Z,2.33
2022-08-22T07:09:06.852Z,2.70
2022-08-22T07:11:40.087Z,2.10
2022-08-22T07:14:13.657Z,1.80
2022-08-22T07:16:52.348Z,1.98
2022-08-22T07:19:34.193Z,2.10
2022-08-22T07:22:15.899Z,1.95
2022-08-22T07:24:55.920Z,1.88
2022-08-22T07:27:41.859Z,2.28
2022-08-22T07:30:15.801Z,2.17
2022-08-22T07:33:17.760Z,1.80
2022-08-22T07:35:54.779Z,2.00
2022-08-22T07:38:44.109Z,2.22
2022-08-22T07:41:20.230Z,2.05
2022-08-22T07:43:53.058Z,1.92
2022-08-22T07:46:36.869Z,2.40
2022-08-22T07:49:24.243Z,2.35
2022-08-22T07:52:02.165Z,2.72
2022-08-22T07:54:38.350Z,2.30
2022-08-22T07:57:25.153Z,2.55
2022-08-22T07:59:55.759Z,2.53
2022-08-22T08:02:24.892Z,2.50
2022-08-22T08:04:56.661Z,2.58
2022-08-22T08:07:29.270Z,1.92
2022-08-22T08:10:11.148Z,2.55
2022-08-22T08:12:44.518Z,2.38
2022-08-22T08:15:26.288Z,2.55
2022-08-22T08:18:02.114Z,2.40
2022-08-22T08:20:30.580Z,2.20
2022-08-22T08:22:59.502Z,2.10
2022-08-22T08:25:31.209Z,1.83
2022-08-22T08:28:18.551Z,2.30
2022-08-22T08:30:56.776Z,2.20
2022-08-22T08:33:28.436Z,2.20
2022-08-22T08:36:10.216Z,2.38
2022-08-22T08:39:14.481Z,1.90
2022-08-22T08:42:22.520Z,2.10
2022-08-22T08:45:14.404Z,2.08
2022-08-22T08:48:14.597Z,2.53
2022-08-22T08:51:05.350Z,2.20
2022-08-22T08:53:57.708Z,2.08
2022-08-22T08:56:28.789Z,2.10
2022-08-22T08:59:25.895Z,1.83
2022-08-22T09:02:13.748Z,1.75
2022-08-22T09:05:12.898Z,1.67
2022-08-22T09:07:56.333Z,1.70
2022-08-22T09:10:44.062Z,1.60
2022-08-22T09:13:57.625Z,1.60
2022-08-22T09:16:53.746Z,2.30
2022-08-22T09:19:59.900Z,2.58
2022-08-22T09:22:50.191Z,2.85
2022-08-22T09:25:38.501Z,2.60
2022-08-22T09:28:28.308Z,2.97
2022-08-22T09:31:44.798Z,2.40
2022-08-22T09:34:23.992Z,2.10
2022-08-22T09:37:36.148Z,2.20
2022-08-22T09:40:21.301Z,3.05
2022-08-22T09:43:19.833Z,1.80
2022-08-22T09:46:31.340Z,1.80
2022-08-22T09:49:18.267Z,1.75
2022-08-22T09:52:15.582Z,1.50
2022-08-22T09:55:08.145Z,1.67
2022-08-22T10:00:47.575Z,1.48
2022-08-22T10:03:51.594Z,1.50
2022-08-22T10:06:25.789Z,1.60
2022-08-22T10:09:08.820Z,1.80
2022-08-22T10:11:49.880Z,1.55
2022-08-22T10:14:35.330Z,1.70
2022-08-22T10:17:16.832Z,1.48
2022-08-22T10:19:59.176Z,1.65
2022-08-22T10:22:57.781Z,1.80
2022-08-22T10:25:33.779Z,1.67
2022-08-22T10:28:16.082Z,1.30
2022-08-22T10:30:55.151Z,1.52
2022-08-22T10:33:34.066Z,2.15
2022-08-22T10:36:05.194Z,1.70
2022-08-22T10:38:43.920Z,2.00
2022-08-22T10:41:41.698Z,1.77
2022-08-22T10:44:30.246Z,1.83
2022-08-22T10:47:08.900Z,2.20
2022-08-22T10:49:54.802Z,1.80
2022-08-22T10:52:22.732Z,1.77
2022-08-22T10:54:56.691Z,1.80
2022-08-22T10:57:33.019Z,2.00
2022-08-22T11:00:22.603Z,1.60
2022-08-22T11:03:04.907Z,1.67
2022-08-22T11:05:43.953Z,1.70
2022-08-22T11:08:29.026Z,1.80
2022-08-22T11:10:58.902Z,1.70
2022-08-22T11:13:43.600Z,2.00
2022-08-22T11:16:30.973Z,1.70
2022-08-22T11:19:25.553Z,1.67
2022-08-22T11:22:24.075Z,1.60
2022-08-22T11:28:00.509Z,1.40
2022-08-22T11:30:51.851Z,1.67
2022-08-22T11:33:47.050Z,1.40
2022-08-22T11:36:33.268Z,1.50
2022-08-22T11:39:13.723Z,1.52
2022-08-22T11:42:09.778Z,1.45
2022-08-22T11:45:02.046Z,1.30
2022-08-22T11:47:33.938Z,1.00
2022-08-22T11:50:13.886Z,1.20
2022-08-22T11:53:04.586Z,1.10
2022-08-22T11:55:47.050Z,1.10
2022-08-22T11:58:47.122Z,1.10
2022-08-22T12:01:23.815Z,0.90
2022-08-22T12:04:15.054Z,1.20
2022-08-22T12:06:56.104Z,1.20
2022-08-22T12:09:52.169Z,1.50
2022-08-22T12:12:24.505Z,1.30
2022-08-22T12:15:19.188Z,0.90
2022-08-22T12:18:21.708Z,0.95
2022-08-22T12:21:18.793Z,1.20
2022-08-22T12:24:06.149Z,1.30
2022-08-22T12:27:08.924Z,1.40
2022-08-22T12:30:00.353Z,1.23
2022-08-22T12:32:55.222Z,1.10
2022-08-22T12:35:29.961Z,1.20
2022-08-22T12:38:29.248Z,1.10
2022-08-22T12:40:57.402Z,1.38
2022-08-22T12:43:53.782Z,0.85
2022-08-22T12:46:29.903Z,1.30
2022-08-22T12:49:11.048Z,1.40
2022-08-22T12:51:55.846Z,1.25
2022-08-22T12:55:00.019Z,2.22
2022-08-22T12:58:12.028Z,1.20
2022-08-22T13:00:45.392Z,1.00
2022-08-22T13:03:35.661Z,1.13
2022-08-22T13:06:07.839Z,1.50
2022-08-22T13:08:45.962Z,1.30
2022-08-22T13:11:23.042Z,1.35
2022-08-22T13:14:00.265Z,1.38
2022-08-22T13:16:40.910Z,1.38
2022-08-22T13:19:29.388Z,1.40
2022-08-22T13:24:56.160Z,1.30
2022-08-22T13:27:34.150Z,1.30
2022-08-22T13:30:12.709Z,1.38
2022-08-22T13:32:46.882Z,1.20
2022-08-22T13:35:32.375Z,1.40
2022-08-22T13:38:12.378Z,1.30
2022-08-22T13:40:46.120Z,0.95
2022-08-22T13:43:20.962Z,1.25
2022-08-22T13:46:01.868Z,1.08
2022-08-22T13:49:00.706Z,0.98
2022-08-22T13:51:56.228Z,1.27
2022-08-22T13:54:41.799Z,1.40
2022-08-22T13:57:53.204Z,1.30
2022-08-22T14:00:28.911Z,1.27
2022-08-22T14:03:18.109Z,1.38
2022-08-22T14:05:53.341Z,1.42
2022-08-22T14:08:26.299Z,1.23
2022-08-22T14:11:17.044Z,1.33
2022-08-22T14:13:55.921Z,1.20
2022-08-22T14:16:38.063Z,1.35
2022-08-22T14:19:27.164Z,1.23
2022-08-22T14:22:08.087Z,1.57
2022-08-22T14:24:46.336Z,1.77
2022-08-22T14:27:27.062Z,1.40
2022-08-22T14:29:59.304Z,1.60
2022-08-22T14:32:29.707Z,1.20
2022-08-22T14:35:23.544Z,1.30
2022-08-22T14:38:30.677Z,1.38
2022-08-22T14:41:05.089Z,1.70
2022-08-22T14:43:32.407Z,1.50
2022-08-22T14:46:13.154Z,1.60
2022-08-22T14:49:10.695Z,1.50
2022-08-22T14:51:47.246Z,1.67
2022-08-22T14:54:21.381Z,1.60
2022-08-22T14:56:51.718Z,1.60
2022-08-22T14:59:46.031Z,1.67
2022-08-22T15:02:37.814Z,2.03
2022-08-22T15:05:21.465Z,1.90
2022-08-22T15:07:59.660Z,1.75
2022-08-22T15:10:33.250Z,1.90
2022-08-22T15:13:05.485Z,2.67
2022-08-22T15:15:41.281Z,2.00
2022-08-22T15:18:28.934Z,1.92
2022-08-22T15:21:12.938Z,1.83
2022-08-22T15:23:46.978Z,1.85
2022-08-22T15:26:30.615Z,1.90
2022-08-22T15:29:16.508Z,1.90
2022-08-22T15:31:46.565Z,1.73
2022-08-22T15:34:24.063Z,2.10
2022-08-22T15:37:26.297Z,2.00
2022-08-22T15:40:08.349Z,1.90
2022-08-22T15:42:51.510Z,2.00
2022-08-22T15:45:36.135Z,1.70
2022-08-22T15:48:09.798Z,2.00
2022-08-22T15:50:36.951Z,1.80
2022-08-22T15:53:21.004Z,1.75
2022-08-22T15:56:05.533Z,1.50
2022-08-22T15:58:37.507Z,1.55
2022-08-22T16:01:19.263Z,1.83
2022-08-22T16:04:00.256Z,1.60
2022-08-22T16:06:49.532Z,1.60
2022-08-22T16:09:50.732Z,1.67
2022-08-22T16:12:36.156Z,1.50
2022-08-22T16:15:08.175Z,1.63
2022-08-22T16:17:42.499Z,2.30
2022-08-22T16:20:19.522Z,1.67
2022-08-22T16:22:56.752Z,1.30
2022-08-22T16:25:45.646Z,1.65
2022-08-22T16:28:54.210Z,1.60
2022-08-22T16:31:42.993Z,1.30
2022-08-22T16:34:26.177Z,1.60
2022-08-22T16:37:08.960Z,1.70
2022-08-22T16:39:44.694Z,1.50
2022-08-22T16:42:14.670Z,1.70
2022-08-22T16:45:05.523Z,1.40
2022-08-22T16:47:41.840Z,1.55
2022-08-22T16:50:23.998Z,1.55
2022-08-22T16:52:56.910Z,1.50
2022-08-22T16:55:29.942Z,1.70
2022-08-22T16:58:49.888Z,1.67
2022-08-22T17:01:41.660Z,1.55
2022-08-22T17:04:14.909Z,1.90
2022-08-22T17:07:09.989Z,1.70
2022-08-22T17:09:49.465Z,1.65
2022-08-22T17:12:54.012Z,1.50
2022-08-22T17:15:54.998Z,1.67
2022-08-22T17:18:46.532Z,1.50
2022-08-22T17:21:32.293Z,1.50
2022-08-22T17:24:45.170Z,1.75
2022-08-22T17:27:44.710Z,1.70
2022-08-22T17:30:40.378Z,1.57
2022-08-22T17:33:52.218Z,1.52
2022-08-22T17:36:40.907Z,1.70
2022-08-22T17:39:29.130Z,1.80
2022-08-22T17:42:20.780Z,1.73
2022-08-22T17:44:50.833Z,1.90
2022-08-22T17:47:24.286Z,1.50
2022-08-22T17:50:03.174Z,1.55
2022-08-22T17:52:36.701Z,2.63
2022-08-22T17:55:16.454Z,1.65
2022-08-22T17:58:13.399Z,1.80
2022-08-22T18:01:10.927Z,1.60
2022-08-22T18:03:43.431Z,1.92
2022-08-22T18:06:24.912Z,1.60
2022-08-22T18:09:16.300Z,1.77
2022-08-22T18:11:58.125Z,1.80
2022-08-22T18:14:33.583Z,1.48
2022-08-22T18:17:01.356Z,1.60
2022-08-22T18:19:31.430Z,1.50
2022-08-22T18:22:04.913Z,1.67
2022-08-22T18:25:08.566Z,1.50
2022-08-22T18:27:47.188Z,1.50
2022-08-22T18:30:22.510Z,1.40
2022-08-22T18:33:05.589Z,1.60
2022-08-22T18:36:03.080Z,1.30
2022-08-22T18:38:41.089Z,1.58
2022-08-22T18:41:20.361Z,1.50
2022-08-22T18:43:48.998Z,1.60
2022-08-22T18:46:37.749Z,1.20
2022-08-22T18:49:15.441Z,1.73
2022-08-22T18:51:43.742Z,1.80
2022-08-22T18:54:14.005Z,1.90
2022-08-22T18:59:41.933Z,2.20
2022-08-22T19:02:36.631Z,1.83
2022-08-22T19:05:33.764Z,1.30
2022-08-22T19:08:01.286Z,1.65
2022-08-22T19:10:37.794Z,1.50
2022-08-22T19:13:29.528Z,1.20
2022-08-22T19:15:56.817Z,1.65
2022-08-22T19:18:43.439Z,1.50
2022-08-22T19:21:46.906Z,1.30
2022-08-22T19:24:20.041Z,1.13
2022-08-22T19:27:08.449Z,1.40
2022-08-22T19:29:36.246Z,1.33
2022-08-22T19:32:12.811Z,1.20
2022-08-22T19:34:47.769Z,1.27
2022-08-22T19:37:32.948Z,1.35
2022-08-22T19:40:08.640Z,1.20
2022-08-22T19:42:43.449Z,1.15
2022-08-22T19:45:29.498Z,1.25
2022-08-22T19:48:10.568Z,1.17
2022-08-22T19:50:41.344Z,1.10
2022-08-22T19:53:33.103Z,0.98
2022-08-22T19:56:18.702Z,1.33
2022-08-22T19:59:27.844Z,1.48
2022-08-22T20:02:19.745Z,1.30
2022-08-22T20:04:53.930Z,1.17
2022-08-22T20:07:26.911Z,1.15
2022-08-22T20:10:35.586Z,1.20
2022-08-22T20:13:18.786Z,1.40
2022-08-22T20:16:13.827Z,0.98
2022-08-22T20:19:05.925Z,1.30
2022-08-22T20:21:58.182Z,1.20
2022-08-22T20:24:49.523Z,1.45
2022-08-22T20:27:28.869Z,1.50
2022-08-22T20:30:14.623Z,1.20
2022-08-22T20:33:01.998Z,1.45
2022-08-22T20:35:38.353Z,1.33
2022-08-22T20:38:16.890Z,1.45
2022-08-22T20:41:11.723Z,1.33
2022-08-22T20:43:45.699Z,1.40
2022-08-22T20:46:53.313Z,1.30
2022-08-22T20:49:31.783Z,1.20
2022-08-22T20:52:22.670Z,1.13
2022-08-22T20:55:02.034Z,1.35
2022-08-22T20:57:29.929Z,1.33
2022-08-22T21:00:05.705Z,1.60
2022-08-22T21:02:38.477Z,1.38
2022-08-22T21:05:21.634Z,1.52
2022-08-22T21:08:03.449Z,1.60
2022-08-22T21:11:02.024Z,1.55
2022-08-22T21:13:34.104Z,1.30
2022-08-22T21:16:11.619Z,1.25
2022-08-22T21:18:48.269Z,1.42
2022-08-22T21:21:30.429Z,1.30
2022-08-22T21:24:09.560Z,1.60
2022-08-22T21:26:46.570Z,1.33
2022-08-22T21:29:13.641Z,1.55
2022-08-22T21:32:04.578Z,1.17
2022-08-22T21:34:46.817Z,1.65
2022-08-22T21:37:24.210Z,1.40
2022-08-22T21:39:59.576Z,1.33
2022-08-22T21:42:34.279Z,1.48
2022-08-22T21:45:29.518Z,1.30
2022-08-22T21:47:57.558Z,1.70
2022-08-22T21:50:26.621Z,1.55
2022-08-22T21:52:57.218Z,1.63
2022-08-22T21:55:28.715Z,1.60
2022-08-22T21:58:36.341Z,1.77
2022-08-22T22:01:28.181Z,1.58
2022-08-22T22:03:57.065Z,1.35
2022-08-22T22:06:24.244Z,1.58
2022-08-22T22:08:51.339Z,1.52
2022-08-22T22:11:19.064Z,1.48
2022-08-22T22:13:46.318Z,1.75
2022-08-22T22:16:15.185Z,1.60
2022-08-22T22:18:42.294Z,1.60
2022-08-22T22:21:09.618Z,1.42
2022-08-22T22:23:36.810Z,1.60
2022-08-22T22:26:06.101Z,1.45
2022-08-22T22:28:37.023Z,1.75
2022-08-22T22:31:05.159Z,1.60
2022-08-22T22:33:35.212Z,1.65
2022-08-22T22:36:09.435Z,1.67
2022-08-22T22:38:39.522Z,1.63
2022-08-22T22:41:06.842Z,1.30
2022-08-22T22:43:34.302Z,1.60
2022-08-22T22:46:01.461Z,1.88
2022-08-22T22:48:29.417Z,1.90
2022-08-22T22:50:56.442Z,1.40
2022-08-22T22:53:37.987Z,1.58
2022-08-22T22:56:06.477Z,1.50
2022-08-22T22:58:35.671Z,1.50
2022-08-22T23:01:18.451Z,1.80
2022-08-22T23:03:45.904Z,1.60
2022-08-22T23:06:19.439Z,1.63
2022-08-22T23:08:47.749Z,1.75
2022-08-22T23:11:18.080Z,1.90
2022-08-22T23:16:17.400Z,1.70
2022-08-22T23:18:45.640Z,1.83
2022-08-22T23:21:16.668Z,2.38
2022-08-22T23:23:44.871Z,2.20
2022-08-22T23:26:12.479Z,2.22
2022-08-22T23:28:40.392Z,2.13
2022-08-22T23:31:18.137Z,2.40
2022-08-22T23:33:46.253Z,2.13
2022-08-22T23:36:17.890Z,2.58
2022-08-22T23:38:45.878Z,2.25
2022-08-22T23:41:14.672Z,2.30
2022-08-22T23:43:44.918Z,2.35
2022-08-22T23:48:40.151Z,2.80
2022-08-22T23:51:07.848Z,2.60
2022-08-22T23:53:35.020Z,2.85
2022-08-22T23:56:32.815Z,2.40
2022-08-22T23:59:05.528Z,2.60
